sensor_id;sensor_type;location;lat;lon;timestamp;temperature;humidity
36654;DHT22;22650;49.350;20.898;2022-08-11T00:02:11;11.50;99.90
36654;DHT22;22650;49.350;20.898;2022-08-11T00:04:47;11.50;99.90
36654;DHT22;22650;49.350;20.898;2022-08-11T00:07:22;11.50;99.90
36654;DHT22;22650;49.350;20.898;2022-08-11T00:09:57;11.50;99.90
36654;DHT22;22650;49.350;20.898;2022-08-11T00:12:31;11.40;99.90
36654;DHT22;22650;49.350;20.898;2022-08-11T00:15:06;11.40;99.90
36654;DHT22;22650;49.350;20.898;2022-08-11T00:17:41;11.40;99.90
36654;DHT22;22650;49.350;20.898;2022-08-11T00:20:16;11.30;99.90
36654;DHT22;22650;49.350;20.898;2022-08-11T00:22:51;11.30;99.90
36654;DHT22;22650;49.350;20.898;2022-08-11T00:25:24;11.20;99.90
36654;DHT22;22650;49.350;20.898;2022-08-11T00:27:58;11.20;99.90
36654;DHT22;22650;49.350;20.898;2022-08-11T00:30:39;11.20;99.90
36654;DHT22;22650;49.350;20.898;2022-08-11T00:33:15;11.20;99.90
36654;DHT22;22650;49.350;20.898;2022-08-11T00:35:50;11.10;99.90
36654;DHT22;22650;49.350;20.898;2022-08-11T00:38:31;11.10;99.90
36654;DHT22;22650;49.350;20.898;2022-08-11T00:41:19;11.10;99.90
36654;DHT22;22650;49.350;20.898;2022-08-11T00:44:15;11.00;99.90
36654;DHT22;22650;49.350;20.898;2022-08-11T00:46:58;11.00;99.90
36654;DHT22;22650;49.350;20.898;2022-08-11T00:49:53;10.90;99.90
36654;DHT22;22650;49.350;20.898;2022-08-11T00:52:56;10.90;99.90
36654;DHT22;22650;49.350;20.898;2022-08-11T00:59:02;10.90;99.90
36654;DHT22;22650;49.350;20.898;2022-08-11T01:02:05;10.80;99.90
36654;DHT22;22650;49.350;20.898;2022-08-11T01:11:35;10.70;99.90
36654;DHT22;22650;49.350;20.898;2022-08-11T01:21:17;10.60;99.90
36654;DHT22;22650;49.350;20.898;2022-08-11T01:30:42;10.50;99.90
36654;DHT22;22650;49.350;20.898;2022-08-11T01:36:58;10.40;99.90
36654;DHT22;22650;49.350;20.898;2022-08-11T01:40:02;10.40;99.90
36654;DHT22;22650;49.350;20.898;2022-08-11T01:43:24;10.40;99.90
36654;DHT22;22650;49.350;20.898;2022-08-11T01:46:25;10.40;99.90
36654;DHT22;22650;49.350;20.898;2022-08-11T01:49:09;10.30;99.90
36654;DHT22;22650;49.350;20.898;2022-08-11T01:52:14;10.30;99.90
36654;DHT22;22650;49.350;20.898;2022-08-11T01:54:55;10.20;99.90
36654;DHT22;22650;49.350;20.898;2022-08-11T01:57:36;10.20;99.90
36654;DHT22;22650;49.350;20.898;2022-08-11T02:00:15;10.20;99.90
36654;DHT22;22650;49.350;20.898;2022-08-11T02:02:55;10.10;99.90
36654;DHT22;22650;49.350;20.898;2022-08-11T02:05:59;10.10;99.90
36654;DHT22;22650;49.350;20.898;2022-08-11T02:09:04;10.10;99.90
36654;DHT22;22650;49.350;20.898;2022-08-11T02:11:44;10.10;99.90
36654;DHT22;22650;49.350;20.898;2022-08-11T02:14:25;10.00;99.90
36654;DHT22;22650;49.350;20.898;2022-08-11T02:17:14;10.00;99.90
36654;DHT22;22650;49.350;20.898;2022-08-11T02:19:54;10.00;99.90
36654;DHT22;22650;49.350;20.898;2022-08-11T02:22:53;9.90;99.90
36654;DHT22;22650;49.350;20.898;2022-08-11T02:26:08;9.90;99.90
36654;DHT22;22650;49.350;20.898;2022-08-11T02:29:00;9.80;99.90
36654;DHT22;22650;49.350;20.898;2022-08-11T02:31:49;9.80;99.90
36654;DHT22;22650;49.350;20.898;2022-08-11T02:35:11;9.80;99.90
36654;DHT22;22650;49.350;20.898;2022-08-11T02:37:52;9.80;99.90
36654;DHT22;22650;49.350;20.898;2022-08-11T02:40:37;9.70;99.90
36654;DHT22;22650;49.350;20.898;2022-08-11T02:43:38;9.70;99.90
36654;DHT22;22650;49.350;20.898;2022-08-11T02:46:25;9.70;99.90
36654;DHT22;22650;49.350;20.898;2022-08-11T02:49:08;9.60;99.90
36654;DHT22;22650;49.350;20.898;2022-08-11T02:52:04;9.60;99.90
36654;DHT22;22650;49.350;20.898;2022-08-11T02:54:41;9.60;99.90
36654;DHT22;22650;49.350;20.898;2022-08-11T02:57:21;9.50;99.90
36654;DHT22;22650;49.350;20.898;2022-08-11T03:00:04;9.60;99.90
36654;DHT22;22650;49.350;20.898;2022-08-11T03:02:52;9.50;99.90
36654;DHT22;22650;49.350;20.898;2022-08-11T03:05:36;9.50;99.90
36654;DHT22;22650;49.350;20.898;2022-08-11T03:08:17;9.50;99.90
36654;DHT22;22650;49.350;20.898;2022-08-11T03:11:04;9.40;99.90
36654;DHT22;22650;49.350;20.898;2022-08-11T03:14:13;9.40;99.90
36654;DHT22;22650;49.350;20.898;2022-08-11T03:17:15;9.40;99.90
36654;DHT22;22650;49.350;20.898;2022-08-11T03:20:03;9.30;99.90
36654;DHT22;22650;49.350;20.898;2022-08-11T03:22:50;9.30;99.90
36654;DHT22;22650;49.350;20.898;2022-08-11T03:25:31;9.30;99.90
36654;DHT22;22650;49.350;20.898;2022-08-11T03:28:17;9.30;99.90
36654;DHT22;22650;49.350;20.898;2022-08-11T03:31:03;9.30;99.90
36654;DHT22;22650;49.350;20.898;2022-08-11T03:33:45;9.30;99.90
36654;DHT22;22650;49.350;20.898;2022-08-11T03:37:10;9.30;99.90
36654;DHT22;22650;49.350;20.898;2022-08-11T03:40:33;9.30;99.90
36654;DHT22;22650;49.350;20.898;2022-08-11T03:43:43;9.20;99.90
36654;DHT22;22650;49.350;20.898;2022-08-11T03:46:42;9.20;99.90
36654;DHT22;22650;49.350;20.898;2022-08-11T03:49:29;9.30;99.90
36654;DHT22;22650;49.350;20.898;2022-08-11T03:52:18;9.30;99.90
36654;DHT22;22650;49.350;20.898;2022-08-11T03:55:03;9.30;99.90
36654;DHT22;22650;49.350;20.898;2022-08-11T03:58:22;9.30;99.90
36654;DHT22;22650;49.350;20.898;2022-08-11T04:10:53;9.40;99.90
36654;DHT22;22650;49.350;20.898;2022-08-11T04:13:56;9.40;99.90
36654;DHT22;22650;49.350;20.898;2022-08-11T04:17:07;9.40;99.90
36654;DHT22;22650;49.350;20.898;2022-08-11T04:20:06;9.50;99.90
36654;DHT22;22650;49.350;20.898;2022-08-11T04:23:13;9.50;99.90
36654;DHT22;22650;49.350;20.898;2022-08-11T04:29:38;9.60;99.90
36654;DHT22;22650;49.350;20.898;2022-08-11T04:33:09;9.70;99.90
36654;DHT22;22650;49.350;20.898;2022-08-11T04:35:54;9.90;99.90
36654;DHT22;22650;49.350;20.898;2022-08-11T04:39:02;9.90;99.90
36654;DHT22;22650;49.350;20.898;2022-08-11T04:42:19;10.00;99.90
36654;DHT22;22650;49.350;20.898;2022-08-11T04:46:13;10.10;99.90
36654;DHT22;22650;49.350;20.898;2022-08-11T04:52:36;10.20;99.90
36654;DHT22;22650;49.350;20.898;2022-08-11T04:55:52;10.30;99.90
36654;DHT22;22650;49.350;20.898;2022-08-11T04:59:10;10.30;99.90
36654;DHT22;22650;49.350;20.898;2022-08-11T05:02:29;10.40;99.90
36654;DHT22;22650;49.350;20.898;2022-08-11T05:05:18;10.40;99.90
36654;DHT22;22650;49.350;20.898;2022-08-11T05:14:34;10.50;99.90
36654;DHT22;22650;49.350;20.898;2022-08-11T05:17:34;10.60;99.90
36654;DHT22;22650;49.350;20.898;2022-08-11T05:20:26;10.60;99.90
36654;DHT22;22650;49.350;20.898;2022-08-11T05:23:19;10.60;99.90
36654;DHT22;22650;49.350;20.898;2022-08-11T05:26:14;10.70;99.90
36654;DHT22;22650;49.350;20.898;2022-08-11T05:29:38;10.80;99.90
36654;DHT22;22650;49.350;20.898;2022-08-11T05:32:35;11.00;99.90
36654;DHT22;22650;49.350;20.898;2022-08-11T05:35:39;11.10;99.90
36654;DHT22;22650;49.350;20.898;2022-08-11T05:38:36;11.20;99.90
36654;DHT22;22650;49.350;20.898;2022-08-11T05:41:28;11.30;99.90
36654;DHT22;22650;49.350;20.898;2022-08-11T05:44:20;11.40;99.90
36654;DHT22;22650;49.350;20.898;2022-08-11T05:47:21;11.50;99.90
36654;DHT22;22650;49.350;20.898;2022-08-11T05:50:14;11.60;99.90
36654;DHT22;22650;49.350;20.898;2022-08-11T05:53:11;11.70;99.90
36654;DHT22;22650;49.350;20.898;2022-08-11T05:56:16;11.80;99.90
36654;DHT22;22650;49.350;20.898;2022-08-11T05:58:52;11.90;99.90
36654;DHT22;22650;49.350;20.898;2022-08-11T06:01:29;12.00;99.90
36654;DHT22;22650;49.350;20.898;2022-08-11T06:04:06;12.00;99.90
36654;DHT22;22650;49.350;20.898;2022-08-11T06:06:49;12.10;99.90
36654;DHT22;22650;49.350;20.898;2022-08-11T06:09:26;12.30;99.90
36654;DHT22;22650;49.350;20.898;2022-08-11T06:12:03;12.40;99.90
36654;DHT22;22650;49.350;20.898;2022-08-11T06:14:42;12.50;99.90
36654;DHT22;22650;49.350;20.898;2022-08-11T06:17:21;12.70;99.90
36654;DHT22;22650;49.350;20.898;2022-08-11T06:20:01;12.80;99.90
36654;DHT22;22650;49.350;20.898;2022-08-11T06:22:38;13.00;99.90
36654;DHT22;22650;49.350;20.898;2022-08-11T06:25:14;13.10;99.90
36654;DHT22;22650;49.350;20.898;2022-08-11T06:27:54;13.30;99.90
36654;DHT22;22650;49.350;20.898;2022-08-11T06:30:36;13.40;99.90
36654;DHT22;22650;49.350;20.898;2022-08-11T06:33:16;13.60;99.90
36654;DHT22;22650;49.350;20.898;2022-08-11T06:35:58;13.70;99.90
36654;DHT22;22650;49.350;20.898;2022-08-11T06:38:48;13.90;99.90
36654;DHT22;22650;49.350;20.898;2022-08-11T06:41:29;14.00;99.90
36654;DHT22;22650;49.350;20.898;2022-08-11T06:44:15;14.20;99.90
36654;DHT22;22650;49.350;20.898;2022-08-11T06:46:51;14.30;99.90
36654;DHT22;22650;49.350;20.898;2022-08-11T06:49:34;14.40;99.90
36654;DHT22;22650;49.350;20.898;2022-08-11T06:52:34;14.60;99.90
36654;DHT22;22650;49.350;20.898;2022-08-11T06:55:11;14.70;99.90
36654;DHT22;22650;49.350;20.898;2022-08-11T06:58:27;14.80;99.90
36654;DHT22;22650;49.350;20.898;2022-08-11T07:01:27;15.10;99.90
36654;DHT22;22650;49.350;20.898;2022-08-11T07:04:08;15.30;99.90
36654;DHT22;22650;49.350;20.898;2022-08-11T07:10:22;15.70;99.90
36654;DHT22;22650;49.350;20.898;2022-08-11T07:13:18;16.10;99.90
36654;DHT22;22650;49.350;20.898;2022-08-11T07:16:22;16.40;99.90
36654;DHT22;22650;49.350;20.898;2022-08-11T07:19:01;16.70;99.90
36654;DHT22;22650;49.350;20.898;2022-08-11T07:21:54;17.00;99.90
36654;DHT22;22650;49.350;20.898;2022-08-11T07:24:53;17.40;99.90
36654;DHT22;22650;49.350;20.898;2022-08-11T07:27:51;17.80;99.90
36654;DHT22;22650;49.350;20.898;2022-08-11T07:30:49;18.20;99.90
36654;DHT22;22650;49.350;20.898;2022-08-11T07:33:35;18.50;99.90
36654;DHT22;22650;49.350;20.898;2022-08-11T07:36:32;18.80;99.90
36654;DHT22;22650;49.350;20.898;2022-08-11T07:39:15;19.10;99.90
36654;DHT22;22650;49.350;20.898;2022-08-11T07:41:53;19.40;99.90
36654;DHT22;22650;49.350;20.898;2022-08-11T07:44:30;19.70;99.90
36654;DHT22;22650;49.350;20.898;2022-08-11T07:47:24;20.00;99.90
36654;DHT22;22650;49.350;20.898;2022-08-11T07:50:16;20.20;99.90
36654;DHT22;22650;49.350;20.898;2022-08-11T07:53:09;20.40;99.90
36654;DHT22;22650;49.350;20.898;2022-08-11T07:55:43;20.50;99.90
36654;DHT22;22650;49.350;20.898;2022-08-11T07:58:23;20.60;99.90
36654;DHT22;22650;49.350;20.898;2022-08-11T08:01:25;20.90;99.90
36654;DHT22;22650;49.350;20.898;2022-08-11T08:04:17;21.10;99.90
36654;DHT22;22650;49.350;20.898;2022-08-11T08:07:08;21.30;99.90
36654;DHT22;22650;49.350;20.898;2022-08-11T08:10:01;21.50;99.90
36654;DHT22;22650;49.350;20.898;2022-08-11T08:12:52;21.70;99.90
36654;DHT22;22650;49.350;20.898;2022-08-11T08:15:44;22.00;99.90
36654;DHT22;22650;49.350;20.898;2022-08-11T08:18:37;22.20;99.90
36654;DHT22;22650;49.350;20.898;2022-08-11T08:21:11;22.50;99.90
36654;DHT22;22650;49.350;20.898;2022-08-11T08:23:47;22.50;99.90
36654;DHT22;22650;49.350;20.898;2022-08-11T08:26:27;22.70;99.90
36654;DHT22;22650;49.350;20.898;2022-08-11T08:29:23;22.80;99.90
36654;DHT22;22650;49.350;20.898;2022-08-11T08:32:14;23.00;99.90
36654;DHT22;22650;49.350;20.898;2022-08-11T08:34:51;23.10;99.90
36654;DHT22;22650;49.350;20.898;2022-08-11T08:37:26;23.40;99.90
36654;DHT22;22650;49.350;20.898;2022-08-11T08:40:18;23.60;99.90
36654;DHT22;22650;49.350;20.898;2022-08-11T08:42:55;23.70;99.90
36654;DHT22;22650;49.350;20.898;2022-08-11T08:45:32;23.80;99.50
36654;DHT22;22650;49.350;20.898;2022-08-11T08:48:12;23.90;99.20
36654;DHT22;22650;49.350;20.898;2022-08-11T08:50:51;24.00;96.90
36654;DHT22;22650;49.350;20.898;2022-08-11T08:53:48;24.20;99.10
36654;DHT22;22650;49.350;20.898;2022-08-11T08:56:28;24.20;96.60
36654;DHT22;22650;49.350;20.898;2022-08-11T08:59:02;24.40;98.10
36654;DHT22;22650;49.350;20.898;2022-08-11T09:01:41;24.60;97.60
36654;DHT22;22650;49.350;20.898;2022-08-11T09:04:17;24.70;95.70
36654;DHT22;22650;49.350;20.898;2022-08-11T09:06:55;24.70;93.40
36654;DHT22;22650;49.350;20.898;2022-08-11T09:09:34;24.90;93.80
36654;DHT22;22650;49.350;20.898;2022-08-11T09:12:09;24.90;93.00
36654;DHT22;22650;49.350;20.898;2022-08-11T09:14:45;24.80;91.90
36654;DHT22;22650;49.350;20.898;2022-08-11T09:17:40;24.80;92.90
36654;DHT22;22650;49.350;20.898;2022-08-11T09:20:17;24.60;91.60
36654;DHT22;22650;49.350;20.898;2022-08-11T09:22:56;24.60;91.30
36654;DHT22;22650;49.350;20.898;2022-08-11T09:26:07;24.50;91.70
36654;DHT22;22650;49.350;20.898;2022-08-11T09:29:02;24.40;91.50
36654;DHT22;22650;49.350;20.898;2022-08-11T09:31:37;24.40;91.80
36654;DHT22;22650;49.350;20.898;2022-08-11T09:34:13;24.30;91.70
36654;DHT22;22650;49.350;20.898;2022-08-11T09:36:47;24.40;92.00
36654;DHT22;22650;49.350;20.898;2022-08-11T09:39:40;24.50;92.30
36654;DHT22;22650;49.350;20.898;2022-08-11T09:42:32;24.60;92.50
36654;DHT22;22650;49.350;20.898;2022-08-11T09:45:28;24.60;92.20
36654;DHT22;22650;49.350;20.898;2022-08-11T09:48:11;24.50;91.60
36654;DHT22;22650;49.350;20.898;2022-08-11T09:50:47;24.50;91.80
36654;DHT22;22650;49.350;20.898;2022-08-11T09:53:24;24.40;90.60
36654;DHT22;22650;49.350;20.898;2022-08-11T09:56:15;24.40;90.50
36654;DHT22;22650;49.350;20.898;2022-08-11T09:59:07;24.50;91.20
36654;DHT22;22650;49.350;20.898;2022-08-11T10:01:44;24.50;88.30
36654;DHT22;22650;49.350;20.898;2022-08-11T10:04:25;24.60;91.10
36654;DHT22;22650;49.350;20.898;2022-08-11T10:07:03;24.50;90.20
36654;DHT22;22650;49.350;20.898;2022-08-11T10:09:40;24.40;90.20
36654;DHT22;22650;49.350;20.898;2022-08-11T10:12:24;24.30;90.30
36654;DHT22;22650;49.350;20.898;2022-08-11T10:15:03;24.20;91.00
36654;DHT22;22650;49.350;20.898;2022-08-11T10:18:01;24.10;92.00
36654;DHT22;22650;49.350;20.898;2022-08-11T10:20:56;23.90;92.80
36654;DHT22;22650;49.350;20.898;2022-08-11T10:23:33;23.90;93.70
36654;DHT22;22650;49.350;20.898;2022-08-11T10:26:37;23.90;93.70
36654;DHT22;22650;49.350;20.898;2022-08-11T10:29:31;23.90;93.60
36654;DHT22;22650;49.350;20.898;2022-08-11T10:32:29;23.90;95.20
36654;DHT22;22650;49.350;20.898;2022-08-11T10:35:31;24.00;95.00
36654;DHT22;22650;49.350;20.898;2022-08-11T10:38:05;24.10;94.10
36654;DHT22;22650;49.350;20.898;2022-08-11T10:40:44;24.10;94.90
36654;DHT22;22650;49.350;20.898;2022-08-11T10:43:39;24.10;93.30
36654;DHT22;22650;49.350;20.898;2022-08-11T10:46:34;24.10;93.50
36654;DHT22;22650;49.350;20.898;2022-08-11T10:49:26;23.90;93.40
36654;DHT22;22650;49.350;20.898;2022-08-11T10:52:00;23.90;94.20
36654;DHT22;22650;49.350;20.898;2022-08-11T10:54:51;24.00;94.60
36654;DHT22;22650;49.350;20.898;2022-08-11T10:57:43;24.10;94.40
36654;DHT22;22650;49.350;20.898;2022-08-11T11:00:38;24.20;95.20
36654;DHT22;22650;49.350;20.898;2022-08-11T11:03:13;24.30;94.10
36654;DHT22;22650;49.350;20.898;2022-08-11T11:06:02;24.30;93.50
36654;DHT22;22650;49.350;20.898;2022-08-11T11:09:02;24.30;93.40
36654;DHT22;22650;49.350;20.898;2022-08-11T11:11:38;24.30;92.80
36654;DHT22;22650;49.350;20.898;2022-08-11T11:14:34;24.40;92.90
36654;DHT22;22650;49.350;20.898;2022-08-11T11:17:32;24.70;92.20
36654;DHT22;22650;49.350;20.898;2022-08-11T11:20:29;24.80;91.60
36654;DHT22;22650;49.350;20.898;2022-08-11T11:23:14;24.90;92.00
36654;DHT22;22650;49.350;20.898;2022-08-11T11:26:10;25.00;90.80
36654;DHT22;22650;49.350;20.898;2022-08-11T11:29:06;24.90;88.40
36654;DHT22;22650;49.350;20.898;2022-08-11T11:31:50;24.80;90.20
36654;DHT22;22650;49.350;20.898;2022-08-11T11:34:41;24.70;89.80
36654;DHT22;22650;49.350;20.898;2022-08-11T11:37:25;24.70;88.10
36654;DHT22;22650;49.350;20.898;2022-08-11T11:40:06;24.70;90.30
36654;DHT22;22650;49.350;20.898;2022-08-11T11:42:43;24.80;91.10
36654;DHT22;22650;49.350;20.898;2022-08-11T11:45:19;24.80;90.60
36654;DHT22;22650;49.350;20.898;2022-08-11T11:47:57;24.70;90.60
36654;DHT22;22650;49.350;20.898;2022-08-11T11:50:32;24.60;90.50
36654;DHT22;22650;49.350;20.898;2022-08-11T11:53:09;24.60;90.80
36654;DHT22;22650;49.350;20.898;2022-08-11T11:55:43;24.50;89.70
36654;DHT22;22650;49.350;20.898;2022-08-11T11:58:17;24.50;88.50
36654;DHT22;22650;49.350;20.898;2022-08-11T12:01:09;24.30;86.70
36654;DHT22;22650;49.350;20.898;2022-08-11T12:03:52;24.40;88.80
36654;DHT22;22650;49.350;20.898;2022-08-11T12:06:27;24.70;87.00
36654;DHT22;22650;49.350;20.898;2022-08-11T12:09:02;25.00;87.80
36654;DHT22;22650;49.350;20.898;2022-08-11T12:11:36;25.40;84.70
36654;DHT22;22650;49.350;20.898;2022-08-11T12:14:28;25.50;84.00
36654;DHT22;22650;49.350;20.898;2022-08-11T12:17:01;25.30;83.70
36654;DHT22;22650;49.350;20.898;2022-08-11T12:19:35;25.00;83.50
36654;DHT22;22650;49.350;20.898;2022-08-11T12:22:14;24.60;83.80
36654;DHT22;22650;49.350;20.898;2022-08-11T12:25:08;24.00;82.50
36654;DHT22;22650;49.350;20.898;2022-08-11T12:27:59;23.60;86.70
36654;DHT22;22650;49.350;20.898;2022-08-11T12:30:33;23.30;89.30
36654;DHT22;22650;49.350;20.898;2022-08-11T12:33:09;23.10;90.30
36654;DHT22;22650;49.350;20.898;2022-08-11T12:35:43;22.70;92.60
36654;DHT22;22650;49.350;20.898;2022-08-11T12:38:32;22.40;94.40
36654;DHT22;22650;49.350;20.898;2022-08-11T12:41:10;22.20;96.50
36654;DHT22;22650;49.350;20.898;2022-08-11T12:44:02;21.90;97.60
36654;DHT22;22650;49.350;20.898;2022-08-11T12:47:09;21.70;99.10
36654;DHT22;22650;49.350;20.898;2022-08-11T12:49:47;21.40;99.90
36654;DHT22;22650;49.350;20.898;2022-08-11T12:52:54;21.10;99.90
36654;DHT22;22650;49.350;20.898;2022-08-11T12:55:29;20.90;99.90
36654;DHT22;22650;49.350;20.898;2022-08-11T12:58:41;20.70;99.90
36654;DHT22;22650;49.350;20.898;2022-08-11T13:01:15;20.50;99.90
36654;DHT22;22650;49.350;20.898;2022-08-11T13:04:07;20.30;99.90
36654;DHT22;22650;49.350;20.898;2022-08-11T13:06:58;20.00;99.90
36654;DHT22;22650;49.350;20.898;2022-08-11T13:09:36;19.90;99.90
36654;DHT22;22650;49.350;20.898;2022-08-11T13:12:10;19.70;99.90
36654;DHT22;22650;49.350;20.898;2022-08-11T13:15:04;19.60;99.90
36654;DHT22;22650;49.350;20.898;2022-08-11T13:17:38;19.40;99.90
36654;DHT22;22650;49.350;20.898;2022-08-11T13:20:17;19.30;99.90
36654;DHT22;22650;49.350;20.898;2022-08-11T13:22:52;19.20;99.90
36654;DHT22;22650;49.350;20.898;2022-08-11T13:25:30;19.10;99.90
36654;DHT22;22650;49.350;20.898;2022-08-11T13:28:04;19.00;99.90
36654;DHT22;22650;49.350;20.898;2022-08-11T13:30:39;19.10;99.90
36654;DHT22;22650;49.350;20.898;2022-08-11T13:33:31;19.00;99.90
36654;DHT22;22650;49.350;20.898;2022-08-11T13:36:10;19.10;99.90
36654;DHT22;22650;49.350;20.898;2022-08-11T13:38:44;19.20;99.90
36654;DHT22;22650;49.350;20.898;2022-08-11T13:41:21;19.20;99.90
36654;DHT22;22650;49.350;20.898;2022-08-11T13:44:12;19.20;99.90
36654;DHT22;22650;49.350;20.898;2022-08-11T13:46:53;19.30;99.90
36654;DHT22;22650;49.350;20.898;2022-08-11T13:49:28;19.30;99.90
36654;DHT22;22650;49.350;20.898;2022-08-11T13:52:03;19.40;99.90
36654;DHT22;22650;49.350;20.898;2022-08-11T13:54:39;19.50;99.90
36654;DHT22;22650;49.350;20.898;2022-08-11T13:57:14;19.60;99.90
36654;DHT22;22650;49.350;20.898;2022-08-11T14:00:10;19.60;99.90
36654;DHT22;22650;49.350;20.898;2022-08-11T14:03:01;19.60;99.90
36654;DHT22;22650;49.350;20.898;2022-08-11T14:05:38;19.60;99.90
36654;DHT22;22650;49.350;20.898;2022-08-11T14:08:22;19.60;99.90
36654;DHT22;22650;49.350;20.898;2022-08-11T14:11:10;19.60;99.90
36654;DHT22;22650;49.350;20.898;2022-08-11T14:14:23;19.70;99.90
36654;DHT22;22650;49.350;20.898;2022-08-11T14:17:00;19.80;99.90
36654;DHT22;22650;49.350;20.898;2022-08-11T14:19:39;19.80;99.90
36654;DHT22;22650;49.350;20.898;2022-08-11T14:22:14;19.90;99.90
36654;DHT22;22650;49.350;20.898;2022-08-11T14:24:49;20.00;99.90
36654;DHT22;22650;49.350;20.898;2022-08-11T14:27:22;20.10;99.90
36654;DHT22;22650;49.350;20.898;2022-08-11T14:30:22;20.10;99.90
36654;DHT22;22650;49.350;20.898;2022-08-11T14:33:13;20.20;99.90
36654;DHT22;22650;49.350;20.898;2022-08-11T14:35:53;20.30;99.90
36654;DHT22;22650;49.350;20.898;2022-08-11T14:38:27;20.50;99.90
36654;DHT22;22650;49.350;20.898;2022-08-11T14:41:01;20.60;99.90
36654;DHT22;22650;49.350;20.898;2022-08-11T14:43:53;20.80;99.90
36654;DHT22;22650;49.350;20.898;2022-08-11T14:46:46;21.10;99.90
36654;DHT22;22650;49.350;20.898;2022-08-11T14:50:05;21.30;99.90
36654;DHT22;22650;49.350;20.898;2022-08-11T14:52:48;21.40;99.90
36654;DHT22;22650;49.350;20.898;2022-08-11T14:55:24;21.50;99.90
36654;DHT22;22650;49.350;20.898;2022-08-11T14:58:18;21.60;99.90
36654;DHT22;22650;49.350;20.898;2022-08-11T15:00:55;21.70;99.90
36654;DHT22;22650;49.350;20.898;2022-08-11T15:03:31;21.80;99.90
36654;DHT22;22650;49.350;20.898;2022-08-11T15:06:05;21.80;99.90
36654;DHT22;22650;49.350;20.898;2022-08-11T15:08:40;21.70;99.90
36654;DHT22;22650;49.350;20.898;2022-08-11T15:11:29;21.80;99.90
36654;DHT22;22650;49.350;20.898;2022-08-11T15:14:21;21.90;99.90
36654;DHT22;22650;49.350;20.898;2022-08-11T15:17:09;21.90;99.90
36654;DHT22;22650;49.350;20.898;2022-08-11T15:19:44;21.90;99.90
36654;DHT22;22650;49.350;20.898;2022-08-11T15:22:32;21.90;99.90
36654;DHT22;22650;49.350;20.898;2022-08-11T15:25:25;22.00;99.90
36654;DHT22;22650;49.350;20.898;2022-08-11T15:28:01;22.00;99.90
36654;DHT22;22650;49.350;20.898;2022-08-11T15:30:55;22.10;99.90
36654;DHT22;22650;49.350;20.898;2022-08-11T15:33:51;22.20;99.90
36654;DHT22;22650;49.350;20.898;2022-08-11T15:36:44;22.20;99.90
36654;DHT22;22650;49.350;20.898;2022-08-11T15:39:44;22.20;99.90
36654;DHT22;22650;49.350;20.898;2022-08-11T15:43:06;22.20;99.90
36654;DHT22;22650;49.350;20.898;2022-08-11T15:46:07;22.20;99.90
36654;DHT22;22650;49.350;20.898;2022-08-11T15:48:45;22.20;99.90
36654;DHT22;22650;49.350;20.898;2022-08-11T15:51:28;22.20;99.90
36654;DHT22;22650;49.350;20.898;2022-08-11T15:54:05;22.20;99.90
36654;DHT22;22650;49.350;20.898;2022-08-11T15:56:47;22.20;99.90
36654;DHT22;22650;49.350;20.898;2022-08-11T15:59:23;22.10;99.90
36654;DHT22;22650;49.350;20.898;2022-08-11T16:02:17;22.00;99.90
36654;DHT22;22650;49.350;20.898;2022-08-11T16:05:13;21.90;99.90
36654;DHT22;22650;49.350;20.898;2022-08-11T16:08:09;21.70;99.90
36654;DHT22;22650;49.350;20.898;2022-08-11T16:10:46;21.50;99.90
36654;DHT22;22650;49.350;20.898;2022-08-11T16:13:24;21.40;99.90
36654;DHT22;22650;49.350;20.898;2022-08-11T16:16:18;21.20;99.90
36654;DHT22;22650;49.350;20.898;2022-08-11T16:18:53;21.00;99.90
36654;DHT22;22650;49.350;20.898;2022-08-11T16:21:32;21.00;99.90
36654;DHT22;22650;49.350;20.898;2022-08-11T16:24:10;20.90;99.90
36654;DHT22;22650;49.350;20.898;2022-08-11T16:27:05;20.90;99.90
36654;DHT22;22650;49.350;20.898;2022-08-11T16:29:46;20.90;99.90
36654;DHT22;22650;49.350;20.898;2022-08-11T16:32:24;20.80;99.90
36654;DHT22;22650;49.350;20.898;2022-08-11T16:35:00;20.70;99.90
36654;DHT22;22650;49.350;20.898;2022-08-11T16:37:54;20.70;99.90
36654;DHT22;22650;49.350;20.898;2022-08-11T16:40:46;20.60;99.90
36654;DHT22;22650;49.350;20.898;2022-08-11T16:43:23;20.50;99.90
36654;DHT22;22650;49.350;20.898;2022-08-11T16:46:14;20.50;99.90
36654;DHT22;22650;49.350;20.898;2022-08-11T16:49:11;20.40;99.90
36654;DHT22;22650;49.350;20.898;2022-08-11T16:51:46;20.40;99.90
36654;DHT22;22650;49.350;20.898;2022-08-11T16:54:19;20.40;99.90
36654;DHT22;22650;49.350;20.898;2022-08-11T16:57:01;20.30;99.90
36654;DHT22;22650;49.350;20.898;2022-08-11T16:59:57;20.30;99.90
36654;DHT22;22650;49.350;20.898;2022-08-11T17:02:34;20.30;99.90
36654;DHT22;22650;49.350;20.898;2022-08-11T17:05:27;20.20;99.90
36654;DHT22;22650;49.350;20.898;2022-08-11T17:08:30;20.20;99.90
36654;DHT22;22650;49.350;20.898;2022-08-11T17:11:32;20.10;99.90
36654;DHT22;22650;49.350;20.898;2022-08-11T17:14:40;20.00;99.90
36654;DHT22;22650;49.350;20.898;2022-08-11T17:17:15;19.90;99.90
36654;DHT22;22650;49.350;20.898;2022-08-11T17:19:52;19.80;99.90
36654;DHT22;22650;49.350;20.898;2022-08-11T17:22:49;19.70;99.90
36654;DHT22;22650;49.350;20.898;2022-08-11T17:25:45;19.60;99.90
36654;DHT22;22650;49.350;20.898;2022-08-11T17:28:35;19.40;99.90
36654;DHT22;22650;49.350;20.898;2022-08-11T17:31:10;19.40;99.90
36654;DHT22;22650;49.350;20.898;2022-08-11T17:34:04;19.30;99.90
36654;DHT22;22650;49.350;20.898;2022-08-11T17:36:56;19.10;99.90
36654;DHT22;22650;49.350;20.898;2022-08-11T17:39:32;19.00;99.90
36654;DHT22;22650;49.350;20.898;2022-08-11T17:42:07;18.90;99.90
36654;DHT22;22650;49.350;20.898;2022-08-11T17:45:01;18.80;99.90
36654;DHT22;22650;49.350;20.898;2022-08-11T17:47:52;18.70;99.90
36654;DHT22;22650;49.350;20.898;2022-08-11T17:50:44;18.60;99.90
36654;DHT22;22650;49.350;20.898;2022-08-11T17:53:18;18.50;99.90
36654;DHT22;22650;49.350;20.898;2022-08-11T17:56:11;18.30;99.90
36654;DHT22;22650;49.350;20.898;2022-08-11T17:59:03;18.20;99.90
36654;DHT22;22650;49.350;20.898;2022-08-11T18:02:04;18.10;99.90
36654;DHT22;22650;49.350;20.898;2022-08-11T18:05:06;18.00;99.90
36654;DHT22;22650;49.350;20.898;2022-08-11T18:07:45;17.90;99.90
36654;DHT22;22650;49.350;20.898;2022-08-11T18:10:39;17.80;99.90
36654;DHT22;22650;49.350;20.898;2022-08-11T18:13:34;17.70;99.90
36654;DHT22;22650;49.350;20.898;2022-08-11T18:16:26;17.60;99.90
36654;DHT22;22650;49.350;20.898;2022-08-11T18:19:17;17.50;99.90